createdAt,value
2018-09-20T00:01:54.081Z,20.75
2018-09-20T00:04:23.106Z,20.60
2018-09-20T00:06:51.958Z,20.33
2018-09-20T00:09:20.732Z,20.34
2018-09-20T00:11:49.435Z,20.35
2018-09-20T00:14:19.513Z,20.04
2018-09-20T00:16:48.147Z,19.97
2018-09-20T00:19:17.351Z,19.84
2018-09-20T00:21:47.706Z,19.86
2018-09-20T00:24:17.473Z,19.70
2018-09-20T00:26:46.063Z,19.73
2018-09-20T00:29:15.635Z,19.60
2018-09-20T00:31:44.311Z,19.54
2018-09-20T00:34:12.985Z,19.55
2018-09-20T00:36:42.680Z,19.52
2018-09-20T00:39:13.626Z,19.66
2018-09-20T00:41:42.544Z,19.58
2018-09-20T00:44:12.773Z,19.53
2018-09-20T00:46:41.467Z,19.71
2018-09-20T00:49:10.127Z,19.76
2018-09-20T00:51:39.192Z,19.73
2018-09-20T00:54:07.941Z,19.68
2018-09-20T00:56:36.651Z,19.80
2018-09-20T00:59:05.483Z,19.72
2018-09-20T01:01:34.170Z,19.90
2018-09-20T01:04:02.841Z,19.86
2018-09-20T01:06:31.499Z,19.75
2018-09-20T01:09:00.180Z,19.68
2018-09-20T01:11:28.795Z,19.54
2018-09-20T01:13:57.463Z,19.47
2018-09-20T01:16:26.192Z,19.53
2018-09-20T01:18:54.861Z,19.32
2018-09-20T01:21:23.507Z,19.31
2018-09-20T01:23:52.179Z,19.41
2018-09-20T01:26:20.999Z,19.46
2018-09-20T01:28:49.619Z,19.41
2018-09-20T01:31:18.304Z,19.41
2018-09-20T01:33:46.947Z,19.23
2018-09-20T01:36:15.780Z,19.26
2018-09-20T01:38:44.481Z,19.29
2018-09-20T01:41:13.164Z,19.15
2018-09-20T01:43:41.860Z,19.14
2018-09-20T01:46:10.514Z,19.18
2018-09-20T01:48:39.242Z,18.98
2018-09-20T01:51:07.928Z,19.18
2018-09-20T01:53:36.568Z,19.26
2018-09-20T01:56:05.373Z,19.23
2018-09-20T01:58:34.059Z,19.28
2018-09-20T02:01:02.726Z,19.46
2018-09-20T02:03:31.446Z,19.44
2018-09-20T02:06:00.148Z,19.56
2018-09-20T02:08:28.875Z,19.58
2018-09-20T02:10:57.543Z,19.63
2018-09-20T02:13:26.496Z,19.61
2018-09-20T02:15:55.240Z,19.55
2018-09-20T02:18:23.889Z,19.62
2018-09-20T02:20:52.563Z,19.52
2018-09-20T02:23:21.195Z,19.31
2018-09-20T02:25:50.436Z,19.31
2018-09-20T02:28:19.064Z,19.29
2018-09-20T02:30:47.872Z,19.32
2018-09-20T02:33:16.533Z,19.37
2018-09-20T02:35:45.198Z,19.30
2018-09-20T02:38:13.874Z,19.24
2018-09-20T02:40:42.573Z,19.33
2018-09-20T02:43:11.232Z,19.31
2018-09-20T02:45:39.900Z,19.14
2018-09-20T02:48:08.552Z,19.20
2018-09-20T02:50:37.487Z,19.08
2018-09-20T02:53:06.144Z,19.13
2018-09-20T02:55:34.797Z,19.21
2018-09-20T02:58:03.439Z,19.27
2018-09-20T03:00:32.090Z,19.26
2018-09-20T03:03:00.743Z,19.36
2018-09-20T03:05:29.439Z,19.29
2018-09-20T03:07:58.111Z,19.30
2018-09-20T03:11:04.891Z,19.21
2018-09-20T03:13:33.631Z,19.32
2018-09-20T03:16:02.274Z,19.26
2018-09-20T03:18:30.969Z,19.31
2018-09-20T03:20:59.654Z,19.30
2018-09-20T03:23:28.331Z,19.26
2018-09-20T03:25:56.979Z,19.12
2018-09-20T03:28:25.625Z,19.14
2018-09-20T03:30:54.493Z,19.04
2018-09-20T03:33:22.906Z,19.21
2018-09-20T03:35:51.547Z,19.13
2018-09-20T03:38:20.188Z,19.21
2018-09-20T03:40:48.857Z,19.09
2018-09-20T03:43:17.451Z,19.16
2018-09-20T03:45:46.121Z,18.96
2018-09-20T03:48:14.756Z,19.06
2018-09-20T03:50:43.429Z,19.01
2018-09-20T03:53:12.078Z,18.84
2018-09-20T03:55:40.766Z,18.89
2018-09-20T03:58:09.426Z,18.86
2018-09-20T04:00:38.292Z,18.86
2018-09-20T04:03:06.936Z,18.70
2018-09-20T04:05:36.224Z,18.74
2018-09-20T04:08:04.867Z,18.73
2018-09-20T04:10:33.547Z,18.54
2018-09-20T04:13:02.256Z,18.55
2018-09-20T04:15:30.891Z,18.42
2018-09-20T04:17:59.564Z,18.29
2018-09-20T04:20:28.215Z,18.40
2018-09-20T04:22:56.946Z,18.29
2018-09-20T04:25:25.664Z,18.28
2018-09-20T04:27:54.295Z,18.27
2018-09-20T04:30:22.956Z,18.13
2018-09-20T04:32:51.637Z,18.15
2018-09-20T04:35:20.296Z,18.15
2018-09-20T04:37:49.064Z,18.06
2018-09-20T04:40:17.774Z,18.07
2018-09-20T04:42:46.427Z,18.05
2018-09-20T04:45:15.069Z,17.95
2018-09-20T04:47:43.832Z,18.03
2018-09-20T04:50:12.518Z,17.85
2018-09-20T04:52:41.203Z,17.81
2018-09-20T04:55:10.004Z,17.87
2018-09-20T04:57:38.716Z,17.72
2018-09-20T05:00:07.450Z,17.65
2018-09-20T05:02:36.197Z,17.73
2018-09-20T05:05:05.248Z,17.80
2018-09-20T05:07:34.369Z,17.85
2018-09-20T05:10:03.293Z,17.72
2018-09-20T05:12:31.983Z,17.63
2018-09-20T05:15:00.875Z,17.62
2018-09-20T05:17:29.598Z,17.62
2018-09-20T05:19:58.260Z,17.70
2018-09-20T05:22:27.050Z,17.73
2018-09-20T05:24:55.731Z,17.67
2018-09-20T05:27:25.518Z,17.68
2018-09-20T05:29:54.306Z,17.73
2018-09-20T05:32:23.110Z,17.70
2018-09-20T05:34:51.758Z,17.67
2018-09-20T05:37:20.429Z,17.74
2018-09-20T05:39:49.119Z,17.82
2018-09-20T05:42:17.767Z,17.63
2018-09-20T05:44:46.505Z,17.96
2018-09-20T05:47:15.173Z,18.08
2018-09-20T05:49:43.811Z,18.03
2018-09-20T05:52:12.436Z,18.29
2018-09-20T05:54:41.158Z,18.63
2018-09-20T05:57:09.781Z,18.63
2018-09-20T05:59:38.647Z,18.71
2018-09-20T06:02:07.308Z,19.00
2018-09-20T06:04:35.946Z,18.91
2018-09-20T06:07:04.719Z,18.82
2018-09-20T06:09:33.378Z,18.83
2018-09-20T06:12:01.999Z,19.01
2018-09-20T06:14:30.632Z,19.06
2018-09-20T06:16:59.306Z,19.02
2018-09-20T06:19:27.964Z,19.11
2018-09-20T06:21:56.688Z,19.30
2018-09-20T06:24:25.244Z,19.47
2018-09-20T06:26:54.100Z,19.35
2018-09-20T06:29:22.717Z,19.66
2018-09-20T06:31:51.367Z,19.74
2018-09-20T06:34:20.426Z,19.67
2018-09-20T06:36:49.068Z,19.61
2018-09-20T06:39:17.655Z,19.57
2018-09-20T06:41:46.369Z,19.84
2018-09-20T06:44:15.033Z,19.88
2018-09-20T06:46:43.699Z,20.14
2018-09-20T06:49:12.590Z,20.27
2018-09-20T06:51:41.243Z,20.44
2018-09-20T06:54:09.859Z,20.47
2018-09-20T06:56:38.541Z,20.78
2018-09-20T06:59:07.253Z,21.00
2018-09-20T07:01:35.859Z,21.13
2018-09-20T07:04:04.580Z,21.20
2018-09-20T07:06:33.234Z,21.31
2018-09-20T07:09:01.903Z,21.64
2018-09-20T07:11:30.528Z,21.46
2018-09-20T07:13:59.159Z,21.87
2018-09-20T07:16:27.819Z,21.60
2018-09-20T07:18:56.435Z,22.23
2018-09-20T07:21:25.212Z,22.37
2018-09-20T07:23:53.883Z,22.83
2018-09-20T07:26:22.550Z,23.22
2018-09-20T07:28:51.203Z,23.22
2018-09-20T07:31:19.825Z,23.18
2018-09-20T07:33:48.719Z,23.58
2018-09-20T07:36:18.165Z,23.51
2018-09-20T07:38:47.121Z,23.67
2018-09-20T07:41:15.811Z,23.84
2018-09-20T07:43:44.679Z,23.61
2018-09-20T07:46:13.479Z,23.76
2018-09-20T07:48:42.172Z,23.81
2018-09-20T07:51:10.871Z,23.38
2018-09-20T07:53:39.695Z,23.42
2018-09-20T07:56:08.335Z,23.73
2018-09-20T07:58:37.092Z,23.57
2018-09-20T08:01:05.718Z,24.25
2018-09-20T08:03:34.363Z,24.26
2018-09-20T08:06:03.032Z,24.16
2018-09-20T08:08:31.771Z,24.46
2018-09-20T08:11:00.462Z,24.29
2018-09-20T08:13:29.208Z,24.32
2018-09-20T08:15:58.871Z,24.71
2018-09-20T08:18:27.535Z,24.34
2018-09-20T08:20:56.177Z,24.74
2018-09-20T08:23:24.787Z,24.60
2018-09-20T08:25:53.423Z,24.31
2018-09-20T08:28:22.091Z,24.48
2018-09-20T08:30:51.323Z,25.43
2018-09-20T08:33:19.983Z,25.99
2018-09-20T08:35:48.620Z,25.25
2018-09-20T08:38:17.248Z,24.98
2018-09-20T08:40:45.940Z,25.50
2018-09-20T08:43:14.612Z,25.16
2018-09-20T08:45:43.208Z,24.98
2018-09-20T08:48:11.828Z,25.00
2018-09-20T08:50:40.488Z,24.77
2018-09-20T08:53:09.219Z,25.37
2018-09-20T08:55:37.962Z,25.78
2018-09-20T08:58:06.651Z,25.50
2018-09-20T09:00:35.329Z,26.09
2018-09-20T09:03:04.129Z,26.07
2018-09-20T09:05:32.751Z,26.25
2018-09-20T09:08:01.401Z,26.08
2018-09-20T09:10:30.066Z,26.04
2018-09-20T09:12:58.819Z,26.70
2018-09-20T09:15:27.514Z,25.93
2018-09-20T09:17:56.152Z,26.34
2018-09-20T09:20:24.827Z,26.98
2018-09-20T09:22:53.520Z,27.02
2018-09-20T09:25:22.166Z,27.00
2018-09-20T09:27:50.824Z,27.45
2018-09-20T09:30:19.596Z,28.01
2018-09-20T09:32:48.486Z,27.06
2018-09-20T09:35:17.229Z,27.20
2018-09-20T09:37:45.859Z,28.17
2018-09-20T09:40:14.532Z,27.26
2018-09-20T09:42:43.313Z,26.97
2018-09-20T09:45:11.935Z,27.12
2018-09-20T09:47:40.557Z,27.09
2018-09-20T09:50:09.244Z,27.59
2018-09-20T09:52:37.912Z,27.82
2018-09-20T09:55:06.543Z,27.49
2018-09-20T09:57:35.206Z,27.69
2018-09-20T10:00:04.599Z,27.31
2018-09-20T10:02:33.371Z,27.36
2018-09-20T10:05:02.013Z,27.29
2018-09-20T10:07:31.228Z,27.29
2018-09-20T10:09:59.856Z,26.80
2018-09-20T10:12:28.767Z,26.82
2018-09-20T10:14:57.485Z,26.62
2018-09-20T10:17:26.129Z,26.77
2018-09-20T10:19:54.827Z,26.76
2018-09-20T10:22:23.441Z,26.23
2018-09-20T10:24:52.096Z,26.09
2018-09-20T10:27:20.771Z,26.27
2018-09-20T10:29:49.455Z,26.73
2018-09-20T10:32:18.222Z,27.86
2018-09-20T10:34:46.910Z,27.05
2018-09-20T10:37:15.549Z,26.30
2018-09-20T10:39:44.317Z,26.50
2018-09-20T10:42:13.087Z,26.37
2018-09-20T10:44:41.912Z,25.77
2018-09-20T10:47:11.086Z,25.20
2018-09-20T10:49:39.723Z,24.89
2018-09-20T10:52:08.717Z,24.97
2018-09-20T10:54:37.453Z,24.91
2018-09-20T10:57:06.178Z,24.92
2018-09-20T10:59:34.775Z,25.22
2018-09-20T11:02:03.480Z,25.04
2018-09-20T11:04:32.122Z,24.88
2018-09-20T11:07:00.837Z,25.10
2018-09-20T11:09:29.492Z,25.23
2018-09-20T11:11:58.197Z,24.91
2018-09-20T11:14:26.852Z,24.55
2018-09-20T11:16:55.463Z,24.80
2018-09-20T11:19:24.107Z,24.78
2018-09-20T11:21:52.863Z,25.27
2018-09-20T11:24:21.581Z,25.45
2018-09-20T11:26:50.229Z,25.52
2018-09-20T11:29:18.981Z,26.02
2018-09-20T11:31:47.583Z,25.93
2018-09-20T11:34:16.355Z,25.50
2018-09-20T11:36:45.040Z,25.72
2018-09-20T11:39:14.447Z,25.86
2018-09-20T11:41:43.199Z,25.76
2018-09-20T11:44:11.956Z,25.86
2018-09-20T11:46:41.119Z,26.03
2018-09-20T11:49:09.746Z,26.43
2018-09-20T11:51:38.441Z,26.49
2018-09-20T11:54:07.115Z,26.13
2018-09-20T11:56:35.882Z,25.94
2018-09-20T11:59:04.580Z,26.07
2018-09-20T12:01:33.228Z,25.96
2018-09-20T12:04:01.912Z,25.83
2018-09-20T12:06:30.640Z,25.92
2018-09-20T12:08:59.276Z,25.60
2018-09-20T12:11:27.966Z,25.56
2018-09-20T12:13:56.596Z,25.79
2018-09-20T12:16:25.491Z,26.02
2018-09-20T12:18:54.143Z,25.91
2018-09-20T12:21:22.759Z,25.84
2018-09-20T12:23:52.580Z,25.74
2018-09-20T12:26:21.204Z,25.53
2018-09-20T12:28:49.872Z,25.40
2018-09-20T12:31:18.663Z,25.37
2018-09-20T12:33:47.282Z,25.80
2018-09-20T12:36:16.001Z,25.97
2018-09-20T12:38:44.758Z,26.03
2018-09-20T12:41:13.303Z,26.07
2018-09-20T12:43:41.991Z,26.09
2018-09-20T12:46:10.851Z,26.40
2018-09-20T12:48:39.485Z,26.61
2018-09-20T12:51:08.558Z,26.26
2018-09-20T12:53:37.725Z,26.24
2018-09-20T12:56:06.356Z,26.42
2018-09-20T12:58:37.827Z,26.43
2018-09-20T13:01:06.635Z,26.35
2018-09-20T13:03:35.376Z,26.41
2018-09-20T13:06:04.117Z,26.39
2018-09-20T13:08:32.760Z,26.38
2018-09-20T13:11:01.646Z,26.28
2018-09-20T13:13:30.373Z,26.41
2018-09-20T13:15:59.195Z,26.49
2018-09-20T13:18:27.960Z,26.32
2018-09-20T13:20:56.739Z,26.91
2018-09-20T13:23:25.392Z,26.70
2018-09-20T13:25:54.193Z,26.52
2018-09-20T13:28:23.127Z,26.75
2018-09-20T13:30:51.871Z,26.39
2018-09-20T13:33:21.200Z,26.36
2018-09-20T13:35:49.971Z,25.97
2018-09-20T13:38:18.760Z,25.89
2018-09-20T13:40:47.750Z,26.01
2018-09-20T13:43:16.510Z,26.12
2018-09-20T13:45:45.213Z,26.08
2018-09-20T13:48:14.041Z,26.17
2018-09-20T13:50:43.541Z,25.91
2018-09-20T13:53:12.211Z,25.83
2018-09-20T13:55:40.960Z,25.92
2018-09-20T13:58:09.682Z,25.96
2018-09-20T14:00:39.533Z,25.93
2018-09-20T14:03:08.254Z,26.18
2018-09-20T14:05:37.417Z,26.41
2018-09-20T14:08:07.436Z,26.50
2018-09-20T14:10:36.383Z,26.50
2018-09-20T14:13:05.083Z,26.67
2018-09-20T14:15:35.285Z,26.61
2018-09-20T14:18:03.967Z,26.34
2018-09-20T14:20:32.686Z,26.63
2018-09-20T14:23:01.440Z,26.64
2018-09-20T14:25:30.095Z,26.38
2018-09-20T14:27:58.790Z,26.32
2018-09-20T14:30:27.406Z,26.18
2018-09-20T14:32:56.433Z,26.27
2018-09-20T14:35:25.518Z,26.53
2018-09-20T14:37:54.187Z,26.35
2018-09-20T14:40:22.894Z,26.50
2018-09-20T14:42:51.563Z,26.40
2018-09-20T14:45:20.341Z,26.20
2018-09-20T14:47:49.028Z,26.12
2018-09-20T14:50:17.809Z,26.08
2018-09-20T14:52:46.576Z,25.91
2018-09-20T14:55:15.214Z,25.63
2018-09-20T14:57:43.890Z,25.97
2018-09-20T15:00:12.567Z,26.02
2018-09-20T15:02:41.280Z,25.96
2018-09-20T15:05:09.907Z,25.83
2018-09-20T15:07:38.595Z,25.79
2018-09-20T15:10:07.229Z,25.84
2018-09-20T15:12:35.891Z,25.90
2018-09-20T15:15:04.751Z,25.94
2018-09-20T15:17:33.435Z,25.65
2018-09-20T15:20:02.239Z,25.76
2018-09-20T15:22:30.891Z,25.67
2018-09-20T15:24:59.596Z,25.65
2018-09-20T15:27:34.897Z,25.60
2018-09-20T15:30:03.658Z,25.46
2018-09-20T15:32:32.365Z,25.44
2018-09-20T15:35:01.148Z,25.68
2018-09-20T15:37:30.226Z,25.52
2018-09-20T15:39:59.195Z,25.51
2018-09-20T15:42:27.804Z,25.39
2018-09-20T15:44:56.468Z,25.38
2018-09-20T15:47:25.166Z,25.48
2018-09-20T15:49:54.595Z,25.39
2018-09-20T15:52:23.248Z,25.37
2018-09-20T15:54:51.981Z,25.46
2018-09-20T15:57:20.724Z,25.33
2018-09-20T15:59:49.608Z,25.30
2018-09-20T16:02:18.364Z,25.33
2018-09-20T16:04:47.034Z,25.17
2018-09-20T16:07:15.656Z,25.24
2018-09-20T16:09:44.563Z,25.10
2018-09-20T16:12:13.229Z,25.08
2018-09-20T16:14:42.211Z,25.13
2018-09-20T16:17:10.896Z,25.07
2018-09-20T16:19:39.552Z,24.95
2018-09-20T16:22:08.397Z,25.10
2018-09-20T16:24:37.071Z,24.90
2018-09-20T16:27:05.755Z,24.89
2018-09-20T16:29:53.051Z,24.94
2018-09-20T16:32:34.903Z,24.87
2018-09-20T16:35:23.668Z,24.87
2018-09-20T16:39:16.808Z,24.78
2018-09-20T16:41:48.647Z,24.70
2018-09-20T16:44:17.294Z,24.70
2018-09-20T16:46:46.079Z,24.79
2018-09-20T16:49:14.759Z,24.61
2018-09-20T16:51:43.504Z,24.64
2018-09-20T16:54:14.862Z,24.56
2018-09-20T16:56:43.667Z,24.42
2018-09-20T16:59:12.351Z,24.38
2018-09-20T17:01:41.065Z,24.38
2018-09-20T17:04:09.814Z,24.25
2018-09-20T17:06:38.485Z,24.12
2018-09-20T17:09:08.212Z,24.20
2018-09-20T17:11:38.599Z,24.00
2018-09-20T17:14:07.328Z,23.86
2018-09-20T17:16:36.089Z,23.80
2018-09-20T17:19:04.773Z,23.77
2018-09-20T17:21:33.416Z,23.76
2018-09-20T17:24:02.436Z,23.77
2018-09-20T17:26:31.144Z,23.73
2018-09-20T17:29:00.864Z,23.54
2018-09-20T17:31:30.009Z,23.68
2018-09-20T17:33:58.677Z,23.54
2018-09-20T17:36:28.211Z,23.46
2018-09-20T17:38:58.432Z,23.42
2018-09-20T17:41:30.031Z,23.38
2018-09-20T17:44:00.930Z,23.25
2018-09-20T17:46:29.600Z,23.08
2018-09-20T17:48:58.252Z,23.13
2018-09-20T17:51:27.319Z,22.93
2018-09-20T17:53:56.710Z,22.97
2018-09-20T17:56:25.944Z,22.97
2018-09-20T17:58:57.477Z,22.72
2018-09-20T18:01:26.142Z,22.60
2018-09-20T18:03:54.867Z,22.56
2018-09-20T18:06:23.786Z,22.57
2018-09-20T18:08:52.728Z,22.43
2018-09-20T18:11:21.570Z,22.35
2018-09-20T18:13:50.314Z,22.36
2018-09-20T18:16:19.297Z,22.31
2018-09-20T18:18:47.956Z,22.31
2018-09-20T18:21:16.692Z,22.11
2018-09-20T18:23:45.578Z,22.08
2018-09-20T18:26:14.227Z,22.03
2018-09-20T18:28:42.832Z,21.88
2018-09-20T18:31:11.531Z,21.72
2018-09-20T18:33:40.252Z,21.65
2018-09-20T18:36:09.147Z,21.68
2018-09-20T18:38:37.858Z,21.52
2018-09-20T18:41:06.760Z,21.55
2018-09-20T18:43:35.394Z,21.60
2018-09-20T18:46:04.102Z,21.47
2018-09-20T18:48:32.861Z,21.46
2018-09-20T18:51:01.666Z,21.24
2018-09-20T18:53:30.575Z,21.45
2018-09-20T18:55:59.377Z,21.18
2018-09-20T18:58:28.064Z,21.32
2018-09-20T19:00:56.768Z,21.27
2018-09-20T19:03:25.482Z,21.33
2018-09-20T19:05:54.518Z,21.17
2018-09-20T19:08:23.367Z,21.20
2018-09-20T19:10:52.270Z,21.18
2018-09-20T19:13:20.913Z,21.08
2018-09-20T19:15:49.776Z,21.15
2018-09-20T19:18:18.490Z,21.08
2018-09-20T19:20:47.176Z,21.18
2018-09-20T19:23:16.046Z,20.96
2018-09-20T19:25:44.821Z,21.01
2018-09-20T19:28:13.722Z,21.00
2018-09-20T19:30:43.048Z,20.93
2018-09-20T19:33:11.774Z,20.91
2018-09-20T19:35:40.441Z,20.92
2018-09-20T19:38:10.401Z,20.90
2018-09-20T19:40:39.729Z,20.86
2018-09-20T19:43:08.683Z,20.77
2018-09-20T19:45:37.371Z,20.81
2018-09-20T19:48:07.149Z,20.76
2018-09-20T19:50:36.313Z,20.66
2018-09-20T19:53:05.151Z,20.74
2018-09-20T19:55:34.932Z,20.63
2018-09-20T19:58:04.511Z,20.59
2018-09-20T20:00:33.866Z,20.53
2018-09-20T20:03:02.625Z,20.59
2018-09-20T20:05:31.281Z,20.60
2018-09-20T20:08:01.451Z,20.58
2018-09-20T20:10:30.161Z,20.48
2018-09-20T20:12:58.896Z,20.57
2018-09-20T20:15:28.734Z,20.29
2018-09-20T20:17:57.572Z,20.24
2018-09-20T20:20:26.315Z,20.12
2018-09-20T20:22:55.025Z,19.96
2018-09-20T20:25:24.451Z,20.05
2018-09-20T20:27:53.160Z,20.13
2018-09-20T20:30:22.654Z,20.01
2018-09-20T20:32:52.143Z,20.02
2018-09-20T20:35:21.472Z,19.89
2018-09-20T20:37:50.231Z,19.88
2018-09-20T20:40:18.992Z,19.76
2018-09-20T20:42:48.063Z,19.62
2018-09-20T20:45:16.744Z,19.80
2018-09-20T20:47:46.300Z,19.59
2018-09-20T20:50:15.269Z,19.61
2018-09-20T20:52:44.021Z,19.46
2018-09-20T20:55:13.408Z,19.41
2018-09-20T20:57:42.151Z,19.50
2018-09-20T21:00:11.579Z,19.55
2018-09-20T21:02:40.365Z,19.55
2018-09-20T21:05:09.321Z,19.61
2018-09-20T21:07:38.722Z,19.60
2018-09-20T21:10:07.643Z,19.51
2018-09-20T21:12:36.439Z,19.55
2018-09-20T21:15:05.361Z,19.58
2018-09-20T21:17:34.128Z,19.61
2018-09-20T21:20:03.100Z,19.53
2018-09-20T21:22:31.787Z,19.65
2018-09-20T21:25:01.220Z,19.59
2018-09-20T21:27:30.115Z,19.65
2018-09-20T21:29:58.833Z,19.74
2018-09-20T21:32:27.539Z,19.61
2018-09-20T21:34:56.139Z,19.63
2018-09-20T21:37:24.957Z,19.61
2018-09-20T21:39:53.703Z,19.70
2018-09-20T21:42:22.375Z,19.76
2018-09-20T21:44:51.102Z,19.58
2018-09-20T21:47:19.821Z,19.72
2018-09-20T21:49:48.488Z,19.69
2018-09-20T21:52:17.148Z,19.58
2018-09-20T21:54:46.315Z,19.53
2018-09-20T21:57:14.998Z,19.67
2018-09-20T21:59:43.582Z,19.68
2018-09-20T22:02:12.290Z,19.65
2018-09-20T22:04:40.985Z,19.50
2018-09-20T22:07:09.633Z,19.53
2018-09-20T22:09:39.032Z,19.40
2018-09-20T22:12:07.677Z,19.44
2018-09-20T22:14:36.319Z,19.41
2018-09-20T22:17:05.112Z,19.45
2018-09-20T22:19:33.822Z,19.37
2018-09-20T22:22:02.759Z,19.28
2018-09-20T22:24:31.434Z,19.30
2018-09-20T22:27:00.079Z,19.24
2018-09-20T22:29:28.761Z,19.24
2018-09-20T22:31:57.484Z,19.21
2018-09-20T22:34:26.086Z,19.17
2018-09-20T22:36:54.869Z,19.23
2018-09-20T22:39:23.588Z,19.10
2018-09-20T22:41:52.282Z,19.18
2018-09-20T22:44:21.241Z,19.13
2018-09-20T22:46:50.211Z,19.21
2018-09-20T22:49:19.029Z,19.13
2018-09-20T22:51:47.840Z,18.96
2018-09-20T22:54:16.707Z,19.08
2018-09-20T22:56:45.571Z,18.99
2018-09-20T22:59:14.409Z,18.95
2018-09-20T23:01:43.152Z,19.07
2018-09-20T23:04:11.901Z,19.09
2018-09-20T23:06:40.940Z,19.03
2018-09-20T23:09:11.742Z,18.98
2018-09-20T23:11:41.956Z,18.95
2018-09-20T23:14:10.676Z,18.95
2018-09-20T23:16:39.335Z,18.99
2018-09-20T23:19:08.028Z,18.89
2018-09-20T23:21:36.669Z,18.70
2018-09-20T23:24:05.784Z,18.77
2018-09-20T23:26:34.648Z,18.70
2018-09-20T23:29:03.693Z,18.64
2018-09-20T23:31:32.412Z,18.66
2018-09-20T23:34:01.383Z,18.55
2018-09-20T23:36:30.627Z,18.50
2018-09-20T23:38:59.286Z,18.53
2018-09-20T23:41:28.137Z,18.55
2018-09-20T23:43:58.108Z,18.42
2018-09-20T23:46:26.744Z,18.48
2018-09-20T23:48:55.556Z,18.49
2018-09-20T23:51:24.224Z,18.48
2018-09-20T23:53:53.835Z,18.47
2018-09-20T23:56:22.474Z,18.39
2018-09-20T23:58:51.172Z,18.56
